createdAt,value
2023-11-15T00:01:53.872Z,9.47
2023-11-15T00:04:21.872Z,9.49
2023-11-15T00:06:50.959Z,9.47
2023-11-15T00:09:19.331Z,9.57
2023-11-15T00:11:47.434Z,9.52
2023-11-15T00:14:16.896Z,9.49
2023-11-15T00:16:45.617Z,9.49
2023-11-15T00:19:14.626Z,9.48
2023-11-15T00:21:43.346Z,9.41
2023-11-15T00:24:11.746Z,9.33
2023-11-15T00:26:39.779Z,9.38
2023-11-15T00:29:08.090Z,9.42
2023-11-15T00:31:37.407Z,9.36
2023-11-15T00:34:06.385Z,9.35
2023-11-15T00:36:34.493Z,9.37
2023-11-15T00:39:23.028Z,9.35
2023-11-15T00:41:51.113Z,9.32
2023-11-15T00:44:20.498Z,9.41
2023-11-15T00:46:49.836Z,9.31
2023-11-15T00:49:17.897Z,9.40
2023-11-15T00:51:46.312Z,9.39
2023-11-15T00:54:16.024Z,9.38
2023-11-15T00:56:45.377Z,9.37
2023-11-15T00:59:13.538Z,9.39
2023-11-15T01:01:41.719Z,9.39
2023-11-15T01:04:13.142Z,9.47
2023-11-15T01:06:41.770Z,9.46
2023-11-15T01:09:11.388Z,9.51
2023-11-15T01:11:39.885Z,9.51
2023-11-15T01:14:08.007Z,9.46
2023-11-15T01:16:36.203Z,9.49
2023-11-15T01:19:04.794Z,9.50
2023-11-15T01:21:34.606Z,9.50
2023-11-15T01:24:02.657Z,9.38
2023-11-15T01:26:29.728Z,9.42
2023-11-15T01:28:58.890Z,9.42
2023-11-15T01:31:27.773Z,9.43
2023-11-15T01:33:55.713Z,9.34
2023-11-15T01:36:24.596Z,9.38
2023-11-15T01:38:54.037Z,9.36
2023-11-15T01:41:22.030Z,9.27
2023-11-15T01:43:50.218Z,9.35
2023-11-15T01:46:19.162Z,9.40
2023-11-15T01:48:48.428Z,9.39
2023-11-15T01:51:16.906Z,9.43
2023-11-15T01:53:45.433Z,9.49
2023-11-15T01:56:14.707Z,9.37
2023-11-15T01:58:43.192Z,9.45
2023-11-15T02:01:15.560Z,9.42
2023-11-15T02:03:47.956Z,9.47
2023-11-15T02:06:16.775Z,9.55
2023-11-15T02:08:44.929Z,9.58
2023-11-15T02:11:14.600Z,9.59
2023-11-15T02:13:42.574Z,9.66
2023-11-15T02:16:11.916Z,9.56
2023-11-15T02:18:40.465Z,9.59
2023-11-15T02:21:10.825Z,9.62
2023-11-15T02:23:43.501Z,9.61
2023-11-15T02:26:11.804Z,9.63
2023-11-15T02:28:39.877Z,9.62
2023-11-15T02:31:10.660Z,9.66
2023-11-15T02:33:59.632Z,9.66
2023-11-15T02:36:28.676Z,9.61
2023-11-15T02:38:59.278Z,9.65
2023-11-15T02:41:28.265Z,9.62
2023-11-15T02:43:56.862Z,9.60
2023-11-15T02:46:24.923Z,9.59
2023-11-15T02:48:53.510Z,9.63
2023-11-15T02:51:22.294Z,9.59
2023-11-15T02:53:50.592Z,9.63
2023-11-15T02:56:19.983Z,9.61
2023-11-15T02:58:48.034Z,9.52
2023-11-15T03:01:17.635Z,9.57
2023-11-15T03:04:04.862Z,9.53
2023-11-15T03:06:33.117Z,9.56
2023-11-15T03:09:04.508Z,9.62
2023-11-15T03:11:52.716Z,9.63
2023-11-15T03:14:20.802Z,9.62
2023-11-15T03:16:48.888Z,9.58
2023-11-15T03:19:16.931Z,9.58
2023-11-15T03:21:45.891Z,9.54
2023-11-15T03:24:13.876Z,9.47
2023-11-15T03:26:41.847Z,9.49
2023-11-15T03:29:11.205Z,9.44
2023-11-15T03:31:39.186Z,9.42
2023-11-15T03:34:25.751Z,9.41
2023-11-15T03:36:53.732Z,9.42
2023-11-15T03:39:21.745Z,9.46
2023-11-15T03:41:50.990Z,9.33
2023-11-15T03:44:20.707Z,9.31
2023-11-15T03:46:48.673Z,9.30
2023-11-15T03:49:19.634Z,9.28
2023-11-15T03:51:47.619Z,9.22
2023-11-15T03:54:15.595Z,9.24
2023-11-15T03:56:43.880Z,9.17
2023-11-15T03:59:32.083Z,9.17
2023-11-15T04:02:00.717Z,9.14
2023-11-15T04:04:29.846Z,9.14
2023-11-15T04:06:58.434Z,9.11
2023-11-15T04:09:27.043Z,9.10
2023-11-15T04:11:55.560Z,9.04
2023-11-15T04:14:25.773Z,9.05
2023-11-15T04:16:55.316Z,9.04
2023-11-15T04:19:23.729Z,8.99
2023-11-15T04:22:00.580Z,8.96
2023-11-15T04:24:36.426Z,8.96
2023-11-15T04:27:06.727Z,8.98
2023-11-15T04:29:34.919Z,8.94
2023-11-15T04:32:04.657Z,8.90
2023-11-15T04:34:32.926Z,8.88
2023-11-15T04:37:00.864Z,8.76
2023-11-15T04:39:30.471Z,8.73
2023-11-15T04:41:58.556Z,8.59
2023-11-15T04:44:28.457Z,8.51
2023-11-15T04:46:56.643Z,8.41
2023-11-15T04:49:27.505Z,8.36
2023-11-15T04:51:55.648Z,8.28
2023-11-15T04:54:24.416Z,8.23
2023-11-15T04:56:53.562Z,8.08
2023-11-15T04:59:21.522Z,8.17
2023-11-15T05:01:49.548Z,8.16
2023-11-15T05:04:19.958Z,8.13
2023-11-15T05:06:49.748Z,8.13
2023-11-15T05:09:17.934Z,8.08
2023-11-15T05:11:46.207Z,8.02
2023-11-15T05:14:14.200Z,8.02
2023-11-15T05:16:42.307Z,7.99
2023-11-15T05:19:11.508Z,7.99
2023-11-15T05:21:39.498Z,7.94
2023-11-15T05:24:10.318Z,7.92
2023-11-15T05:26:57.256Z,7.96
2023-11-15T05:29:25.544Z,7.85
2023-11-15T05:31:53.673Z,7.94
2023-11-15T05:34:21.809Z,7.89
2023-11-15T05:36:49.841Z,7.88
2023-11-15T05:39:19.706Z,7.84
2023-11-15T05:42:08.532Z,7.81
2023-11-15T05:44:36.831Z,7.72
2023-11-15T05:47:05.387Z,7.66
2023-11-15T05:49:33.328Z,7.62
2023-11-15T05:52:02.066Z,7.53
2023-11-15T05:54:33.873Z,7.61
2023-11-15T05:57:02.175Z,7.52
2023-11-15T05:59:30.159Z,7.45
2023-11-15T06:02:05.197Z,7.40
2023-11-15T06:04:34.649Z,7.39
2023-11-15T06:07:03.051Z,7.35
2023-11-15T06:09:32.406Z,7.33
2023-11-15T06:12:00.850Z,7.33
2023-11-15T06:14:28.957Z,7.36
2023-11-15T06:17:15.513Z,7.34
2023-11-15T06:19:47.443Z,7.31
2023-11-15T06:22:23.548Z,7.31
2023-11-15T06:24:55.110Z,7.22
2023-11-15T06:27:24.135Z,7.11
2023-11-15T06:29:52.267Z,7.13
2023-11-15T06:32:20.354Z,7.15
2023-11-15T06:35:07.639Z,7.20
2023-11-15T06:37:38.585Z,7.10
2023-11-15T06:40:10.831Z,7.15
2023-11-15T06:42:38.819Z,7.12
2023-11-15T06:45:09.738Z,7.13
2023-11-15T06:47:38.183Z,7.08
2023-11-15T06:50:08.314Z,7.08
2023-11-15T06:52:39.644Z,7.10
2023-11-15T06:55:12.430Z,7.11
2023-11-15T06:57:42.890Z,7.00
2023-11-15T07:00:14.674Z,7.04
2023-11-15T07:02:43.535Z,7.07
2023-11-15T07:05:14.423Z,7.06
2023-11-15T07:07:42.404Z,7.03
2023-11-15T07:10:16.383Z,7.01
2023-11-15T07:12:55.141Z,7.03
2023-11-15T07:15:26.458Z,7.04
2023-11-15T07:18:13.459Z,7.01
2023-11-15T07:20:46.998Z,7.06
2023-11-15T07:23:18.085Z,7.07
2023-11-15T07:25:49.393Z,7.05
2023-11-15T07:28:19.817Z,7.06
2023-11-15T07:30:51.387Z,7.04
2023-11-15T07:33:21.875Z,7.08
2023-11-15T07:35:50.422Z,7.08
2023-11-15T07:38:21.238Z,7.12
2023-11-15T07:40:50.946Z,7.17
2023-11-15T07:43:19.699Z,7.18
2023-11-15T07:45:53.050Z,7.20
2023-11-15T07:48:22.027Z,7.22
2023-11-15T07:50:51.046Z,7.30
2023-11-15T07:53:24.318Z,7.29
2023-11-15T07:56:24.996Z,7.37
2023-11-15T07:59:16.364Z,7.42
2023-11-15T08:01:47.992Z,7.47
2023-11-15T08:04:18.332Z,7.36
2023-11-15T08:06:46.843Z,7.47
2023-11-15T08:09:26.040Z,7.57
2023-11-15T08:11:57.555Z,7.56
2023-11-15T08:14:26.837Z,7.50
2023-11-15T08:16:55.999Z,7.57
2023-11-15T08:19:24.251Z,7.57
2023-11-15T08:21:53.211Z,7.51
2023-11-15T08:24:48.219Z,7.57
2023-11-15T08:27:18.738Z,7.59
2023-11-15T08:30:13.744Z,7.63
2023-11-15T08:32:43.808Z,7.57
2023-11-15T08:35:12.181Z,7.60
2023-11-15T08:37:59.208Z,7.56
2023-11-15T08:40:29.271Z,7.63
2023-11-15T08:42:59.471Z,7.61
2023-11-15T08:45:46.473Z,7.65
2023-11-15T08:48:14.959Z,7.65
2023-11-15T08:50:44.528Z,7.63
2023-11-15T08:53:12.984Z,7.68
2023-11-15T08:55:41.925Z,7.68
2023-11-15T08:58:15.078Z,7.68
2023-11-15T09:00:44.974Z,7.67
2023-11-15T09:03:13.130Z,7.69
2023-11-15T09:05:48.843Z,7.68
2023-11-15T09:08:17.324Z,7.65
2023-11-15T09:10:45.299Z,7.65
2023-11-15T09:13:36.579Z,7.70
2023-11-15T09:16:23.249Z,7.65
2023-11-15T09:18:52.775Z,7.68
2023-11-15T09:21:20.765Z,7.66
2023-11-15T09:23:48.816Z,7.61
2023-11-15T09:26:17.758Z,7.66
2023-11-15T09:28:48.140Z,7.67
2023-11-15T09:31:17.325Z,7.69
2023-11-15T09:33:47.118Z,7.69
2023-11-15T09:36:15.603Z,7.68
2023-11-15T09:38:44.412Z,7.71
2023-11-15T09:41:17.844Z,7.68
2023-11-15T09:43:52.510Z,7.68
2023-11-15T09:46:21.393Z,7.70
2023-11-15T09:48:57.072Z,7.75
2023-11-15T09:51:35.499Z,7.85
2023-11-15T09:54:13.239Z,7.83
2023-11-15T09:56:47.555Z,7.74
2023-11-15T09:59:17.887Z,7.75
2023-11-15T10:02:01.979Z,7.74
2023-11-15T10:04:31.101Z,7.75
2023-11-15T10:07:05.810Z,7.80
2023-11-15T10:09:37.065Z,7.94
2023-11-15T10:12:07.348Z,7.92
2023-11-15T10:14:52.234Z,7.99
2023-11-15T10:17:21.912Z,7.97
2023-11-15T10:19:51.001Z,7.96
2023-11-15T10:22:20.366Z,7.96
2023-11-15T10:25:07.225Z,7.99
2023-11-15T10:27:38.572Z,8.04
2023-11-15T10:30:14.495Z,8.09
2023-11-15T10:32:43.919Z,8.15
2023-11-15T10:35:12.561Z,8.11
2023-11-15T10:37:50.184Z,8.10
2023-11-15T10:40:19.778Z,8.11
2023-11-15T10:42:53.406Z,8.13
2023-11-15T10:45:28.627Z,8.12
2023-11-15T10:48:12.469Z,8.06
2023-11-15T10:50:46.094Z,7.96
2023-11-15T10:53:15.381Z,7.99
2023-11-15T10:55:47.036Z,7.96
2023-11-15T10:58:23.738Z,7.93
2023-11-15T11:00:57.734Z,7.94
2023-11-15T11:03:26.969Z,7.88
2023-11-15T11:06:04.268Z,7.85
2023-11-15T11:08:38.734Z,7.79
2023-11-15T11:11:18.319Z,7.76
2023-11-15T11:13:46.403Z,7.78
2023-11-15T11:16:36.413Z,7.77
2023-11-15T11:19:12.600Z,7.73
2023-11-15T11:22:07.809Z,7.85
2023-11-15T11:24:39.776Z,7.95
2023-11-15T11:27:31.612Z,7.89
2023-11-15T11:30:21.854Z,7.93
2023-11-15T11:33:08.093Z,7.87
2023-11-15T11:35:41.536Z,7.82
2023-11-15T11:38:15.205Z,7.80
2023-11-15T11:40:48.434Z,7.77
2023-11-15T11:43:23.783Z,7.85
2023-11-15T11:45:54.918Z,7.93
2023-11-15T11:48:29.197Z,7.99
2023-11-15T11:51:07.327Z,7.94
2023-11-15T11:53:39.206Z,8.00
2023-11-15T11:56:12.145Z,8.03
2023-11-15T11:59:09.097Z,8.05
2023-11-15T12:01:48.735Z,8.00
2023-11-15T12:04:18.443Z,8.09
2023-11-15T12:06:47.067Z,8.16
2023-11-15T12:09:23.797Z,8.06
2023-11-15T12:11:51.834Z,8.15
2023-11-15T12:14:19.934Z,8.14
2023-11-15T12:16:49.813Z,8.19
2023-11-15T12:19:27.577Z,8.16
2023-11-15T12:21:56.122Z,8.23
2023-11-15T12:24:26.118Z,8.24
2023-11-15T12:26:55.044Z,8.18
2023-11-15T12:29:25.542Z,8.23
2023-11-15T12:31:57.528Z,8.29
2023-11-15T12:34:28.496Z,8.27
2023-11-15T12:36:56.915Z,8.29
2023-11-15T12:39:24.888Z,8.15
2023-11-15T12:41:58.311Z,8.25
2023-11-15T12:44:26.379Z,8.28
2023-11-15T12:47:01.584Z,8.28
2023-11-15T12:49:30.991Z,8.29
2023-11-15T12:52:00.460Z,8.34
2023-11-15T12:54:32.022Z,8.35
2023-11-15T12:57:04.777Z,8.28
2023-11-15T12:59:37.436Z,8.28
2023-11-15T13:02:06.193Z,8.35
2023-11-15T13:04:52.175Z,8.41
2023-11-15T13:07:20.537Z,8.34
2023-11-15T13:09:49.360Z,8.34
2023-11-15T13:12:25.369Z,8.31
2023-11-15T13:14:54.677Z,8.26
2023-11-15T13:17:24.523Z,8.25
2023-11-15T13:19:56.389Z,8.24
2023-11-15T13:22:27.510Z,8.27
2023-11-15T13:24:56.115Z,8.25
2023-11-15T13:27:24.547Z,8.30
2023-11-15T13:29:52.702Z,8.31
2023-11-15T13:32:21.008Z,8.31
2023-11-15T13:34:52.015Z,8.29
2023-11-15T13:37:21.720Z,8.28
2023-11-15T13:39:49.684Z,8.37
2023-11-15T13:42:18.186Z,8.35
2023-11-15T13:44:48.603Z,8.36
2023-11-15T13:47:16.884Z,8.40
2023-11-15T13:49:48.399Z,8.40
2023-11-15T13:52:17.108Z,8.42
2023-11-15T13:54:48.023Z,8.43
2023-11-15T13:57:18.675Z,8.36
2023-11-15T13:59:46.852Z,8.35
2023-11-15T14:02:15.053Z,8.39
2023-11-15T14:04:43.708Z,8.46
2023-11-15T14:07:12.189Z,8.42
2023-11-15T14:09:43.610Z,8.45
2023-11-15T14:12:14.340Z,8.50
2023-11-15T14:14:45.137Z,8.51
2023-11-15T14:17:14.273Z,8.49
2023-11-15T14:19:42.316Z,8.51
2023-11-15T14:22:12.933Z,8.52
2023-11-15T14:24:41.217Z,8.55
2023-11-15T14:27:13.104Z,8.58
2023-11-15T14:29:43.382Z,8.59
2023-11-15T14:32:17.062Z,8.54
2023-11-15T14:34:46.775Z,8.55
2023-11-15T14:37:14.820Z,8.58
2023-11-15T14:39:44.979Z,8.56
2023-11-15T14:42:13.290Z,8.54
2023-11-15T14:44:43.050Z,8.57
2023-11-15T14:47:11.256Z,8.59
2023-11-15T14:49:40.723Z,8.56
2023-11-15T14:52:11.920Z,8.57
2023-11-15T14:54:46.645Z,8.58
2023-11-15T14:57:15.040Z,8.55
2023-11-15T14:59:48.125Z,8.53
2023-11-15T15:02:18.448Z,8.52
2023-11-15T15:04:48.384Z,8.47
2023-11-15T15:07:18.123Z,8.46
2023-11-15T15:09:47.857Z,8.44
2023-11-15T15:12:16.010Z,8.42
2023-11-15T15:14:48.286Z,8.43
2023-11-15T15:17:23.622Z,8.44
2023-11-15T15:19:55.624Z,8.47
2023-11-15T15:22:27.454Z,8.46
2023-11-15T15:24:55.977Z,8.40
2023-11-15T15:27:24.445Z,8.45
2023-11-15T15:29:55.578Z,8.49
2023-11-15T15:32:25.849Z,8.45
2023-11-15T15:34:53.969Z,8.41
2023-11-15T15:37:22.382Z,8.40
2023-11-15T15:39:56.521Z,8.31
2023-11-15T15:42:25.416Z,8.38
2023-11-15T15:44:59.006Z,8.43
2023-11-15T15:47:30.170Z,8.38
2023-11-15T15:49:59.936Z,8.37
2023-11-15T15:52:32.315Z,8.37
2023-11-15T15:55:01.656Z,8.38
2023-11-15T15:57:29.726Z,8.40
2023-11-15T16:00:00.017Z,8.40
2023-11-15T16:02:28.290Z,8.50
2023-11-15T16:04:59.158Z,8.42
2023-11-15T16:07:27.233Z,8.45
2023-11-15T16:09:55.226Z,8.44
2023-11-15T16:12:23.296Z,8.40
2023-11-15T16:14:51.788Z,8.27
2023-11-15T16:17:22.056Z,8.24
2023-11-15T16:19:58.105Z,8.37
2023-11-15T16:22:40.963Z,8.45
2023-11-15T16:25:11.874Z,8.41
2023-11-15T16:27:39.894Z,8.30
2023-11-15T16:30:15.115Z,8.36
2023-11-15T16:32:45.051Z,8.43
2023-11-15T16:35:13.556Z,8.33
2023-11-15T16:37:43.395Z,8.24
2023-11-15T16:40:16.665Z,8.31
2023-11-15T16:42:52.450Z,8.29
2023-11-15T16:45:21.951Z,8.27
2023-11-15T16:47:52.243Z,8.21
2023-11-15T16:50:21.440Z,8.21
2023-11-15T16:52:50.987Z,8.05
2023-11-15T16:55:19.055Z,7.92
2023-11-15T16:57:47.150Z,7.90
2023-11-15T17:00:21.363Z,7.86
2023-11-15T17:02:53.297Z,7.94
2023-11-15T17:05:24.080Z,7.68
2023-11-15T17:07:52.181Z,7.82
2023-11-15T17:10:20.414Z,7.86
2023-11-15T17:12:48.655Z,7.77
2023-11-15T17:15:17.020Z,7.41
2023-11-15T17:17:48.714Z,7.54
2023-11-15T17:20:19.376Z,7.39
2023-11-15T17:22:47.531Z,7.58
2023-11-15T17:25:20.061Z,7.32
2023-11-15T17:27:48.739Z,7.21
2023-11-15T17:30:17.170Z,7.12
2023-11-15T17:32:45.380Z,6.97
2023-11-15T17:35:13.851Z,6.87
2023-11-15T17:37:44.524Z,6.84
2023-11-15T17:40:16.138Z,6.81
2023-11-15T17:42:44.213Z,6.69
2023-11-15T17:45:16.562Z,6.59
2023-11-15T17:47:44.823Z,6.56
2023-11-15T17:50:16.248Z,6.61
2023-11-15T17:52:47.875Z,6.63
2023-11-15T17:55:16.299Z,6.47
2023-11-15T17:57:45.393Z,6.62
2023-11-15T18:00:39.607Z,6.33
2023-11-15T18:03:09.947Z,6.25
2023-11-15T18:05:40.306Z,6.25
2023-11-15T18:08:13.647Z,6.23
2023-11-15T18:10:43.013Z,6.20
2023-11-15T18:13:13.854Z,6.15
2023-11-15T18:15:42.294Z,6.09
2023-11-15T18:18:10.707Z,6.08
2023-11-15T18:20:39.759Z,6.16
2023-11-15T18:23:07.762Z,6.25
2023-11-15T18:25:39.153Z,6.23
2023-11-15T18:28:08.203Z,6.41
2023-11-15T18:30:36.773Z,6.39
2023-11-15T18:33:11.510Z,6.28
2023-11-15T18:35:46.107Z,6.37
2023-11-15T18:38:15.918Z,6.29
2023-11-15T18:40:47.719Z,6.19
2023-11-15T18:43:16.021Z,6.15
2023-11-15T18:45:46.237Z,6.19
2023-11-15T18:48:14.702Z,6.25
2023-11-15T18:50:42.969Z,6.26
2023-11-15T18:53:11.344Z,6.21
2023-11-15T18:55:42.396Z,6.17
2023-11-15T18:58:11.994Z,6.11
2023-11-15T19:00:40.301Z,6.07
2023-11-15T19:03:08.596Z,6.03
2023-11-15T19:05:37.109Z,5.97
2023-11-15T19:08:07.467Z,5.98
2023-11-15T19:10:35.752Z,6.09
2023-11-15T19:13:03.901Z,6.14
2023-11-15T19:15:33.332Z,6.17
2023-11-15T19:18:01.599Z,6.08
2023-11-15T19:20:31.391Z,6.06
2023-11-15T19:22:59.602Z,6.10
2023-11-15T19:25:26.949Z,6.04
2023-11-15T19:27:55.263Z,5.95
2023-11-15T19:30:25.495Z,5.99
2023-11-15T19:32:57.538Z,6.01
2023-11-15T19:35:29.344Z,5.88
2023-11-15T19:37:57.468Z,6.02
2023-11-15T19:40:25.649Z,5.99
2023-11-15T19:42:54.116Z,6.00
2023-11-15T19:45:25.249Z,6.00
2023-11-15T19:47:53.686Z,6.02
2023-11-15T19:50:23.673Z,6.08
2023-11-15T19:52:52.083Z,5.99
2023-11-15T19:55:20.336Z,6.03
2023-11-15T19:57:48.389Z,6.05
2023-11-15T20:00:18.063Z,6.07
2023-11-15T20:02:47.988Z,6.01
2023-11-15T20:05:18.147Z,6.03
2023-11-15T20:07:50.313Z,6.06
2023-11-15T20:10:20.002Z,6.05
2023-11-15T20:12:49.526Z,6.03
2023-11-15T20:15:18.526Z,6.10
2023-11-15T20:17:46.923Z,6.13
2023-11-15T20:20:15.981Z,6.10
2023-11-15T20:22:50.896Z,6.17
2023-11-15T20:25:22.370Z,6.14
2023-11-15T20:27:50.487Z,6.19
2023-11-15T20:30:22.120Z,6.22
2023-11-15T20:32:52.665Z,6.08
2023-11-15T20:35:22.553Z,6.15
2023-11-15T20:37:50.676Z,6.14
2023-11-15T20:40:18.784Z,6.10
2023-11-15T20:42:48.739Z,6.11
2023-11-15T20:45:17.275Z,5.99
2023-11-15T20:47:46.090Z,6.12
2023-11-15T20:50:14.484Z,6.13
2023-11-15T20:52:42.976Z,6.07
2023-11-15T20:55:11.845Z,6.15
2023-11-15T20:57:40.145Z,6.20
2023-11-15T21:00:13.177Z,6.38
2023-11-15T21:02:42.028Z,6.29
2023-11-15T21:05:12.339Z,6.04
2023-11-15T21:07:40.978Z,6.19
2023-11-15T21:10:10.654Z,6.11
2023-11-15T21:12:39.362Z,6.06
2023-11-15T21:15:11.561Z,6.15
2023-11-15T21:17:39.811Z,6.08
2023-11-15T21:20:12.567Z,6.14
2023-11-15T21:22:41.436Z,6.10
2023-11-15T21:25:12.614Z,6.10
2023-11-15T21:27:41.701Z,6.07
2023-11-15T21:30:12.949Z,6.12
2023-11-15T21:32:42.205Z,6.30
2023-11-15T21:35:10.825Z,6.25
2023-11-15T21:37:42.782Z,6.18
2023-11-15T21:40:15.675Z,6.18
2023-11-15T21:42:45.571Z,6.28
2023-11-15T21:45:17.477Z,6.21
2023-11-15T21:47:46.701Z,6.24
2023-11-15T21:50:16.612Z,6.21
2023-11-15T21:52:44.927Z,6.21
2023-11-15T21:55:13.219Z,6.15
2023-11-15T21:57:41.709Z,6.18
2023-11-15T22:00:11.336Z,6.17
2023-11-15T22:02:40.811Z,6.25
2023-11-15T22:05:10.563Z,6.27
2023-11-15T22:07:39.716Z,6.24
2023-11-15T22:10:11.180Z,6.27
2023-11-15T22:12:39.326Z,6.57
2023-11-15T22:15:20.579Z,6.39
2023-11-15T22:17:50.420Z,6.26
2023-11-15T22:20:24.839Z,6.27
2023-11-15T22:22:52.819Z,6.39
2023-11-15T22:25:20.823Z,6.34
2023-11-15T22:27:49.051Z,6.42
2023-11-15T22:30:17.114Z,6.75
2023-11-15T22:32:45.453Z,6.49
2023-11-15T22:35:15.445Z,6.53
2023-11-15T22:37:43.988Z,6.63
2023-11-15T22:40:13.300Z,6.51
2023-11-15T22:42:41.466Z,6.56
2023-11-15T22:45:10.508Z,6.60
2023-11-15T22:47:38.829Z,6.60
2023-11-15T22:50:08.138Z,6.53
2023-11-15T22:52:37.520Z,6.60
2023-11-15T22:55:06.649Z,6.59
2023-11-15T22:57:34.677Z,6.73
2023-11-15T23:00:05.677Z,6.68
2023-11-15T23:02:34.643Z,6.69
2023-11-15T23:05:03.793Z,6.67
2023-11-15T23:07:31.857Z,6.57
2023-11-15T23:10:01.228Z,6.54
2023-11-15T23:12:31.310Z,6.55
2023-11-15T23:15:02.524Z,6.46
2023-11-15T23:17:30.589Z,6.52
2023-11-15T23:19:58.519Z,6.56
2023-11-15T23:22:26.485Z,6.56
2023-11-15T23:24:54.454Z,6.55
2023-11-15T23:27:25.067Z,6.51
2023-11-15T23:29:53.596Z,6.51
2023-11-15T23:32:22.011Z,6.49
2023-11-15T23:34:50.003Z,6.52
2023-11-15T23:37:18.020Z,6.47
2023-11-15T23:39:46.449Z,6.47
2023-11-15T23:42:14.478Z,6.47
2023-11-15T23:44:44.571Z,6.54
2023-11-15T23:47:13.045Z,6.50
2023-11-15T23:49:41.015Z,6.45
2023-11-15T23:52:09.007Z,6.47
2023-11-15T23:54:38.400Z,6.47
2023-11-15T23:57:09.180Z,6.49
2023-11-15T23:59:37.360Z,6.49
